Terminal Aerodrome Forecast
Issued by NWS

Home | Current Version | Previous Version | Text Only | Print | Product List | Glossary On
Versions: 1 2 3 4 5 6 7 8 9 10 11 12 13 14
000
FTUS44 KMAF 181100
TAFFST
TAF
KFST 181120Z 1812/1912 16006KT P6SM FEW110 SCT130
     FM181600 10008KT P6SM SCT035 SCT130
     FM190100 13008KT P6SM OVC035=

USA.gov is the U.S. government's official web portal to all federal, state and local government web resources and services.